Malabo

Airport
ICAO code: 
FGSL
IATA Code: 
SSG
Summary
ICAO Region: 
AFI
Territory: 
Location: 
Punta Europa, Bioko Island, Bioko Island
Serving: 
Malabo
Elevation: 
76 ft
Coordinates: 
Aerial View: 
3° 45' 19.001" N, 8° 42' 31" E
Metar
Observation
FGSL 041100Z 06004KT 020V090 9999 FEW010 32/25 Q1010 NOSIG
Station
Malabo/Fernando Poo
Date/Time
2021-12-04 11:00:00
Wind direction
60°
Wind speed
04 kts
Lowest cloud amount
few clouds
Temperature
32°C
Dew point
25°C
Humidity
66%
QNH
1010 hPa
Weather condition
n/a

Malabo Airport or Saint Isabel Airport is an airport located at Punta Europa, Bioko Island, Equatorial Guinea.

Climatology

Tropical Monsoon climate (Köppen climate classification Am)

Runways

Designator Length Width Surface Rops
5/23 2940 46 CON Yes/Yes
Airport map: 
Aerial View: 

SKYbrary Partners:

Safety knowledge contributed by: